createdAt,value
2018-09-30T00:00:26.090Z,4.90
2018-09-30T00:02:54.398Z,3.67
2018-09-30T00:05:22.629Z,6.30
2018-09-30T00:07:51.099Z,4.37
2018-09-30T00:10:19.316Z,5.03
2018-09-30T00:12:47.575Z,5.07
2018-09-30T00:15:15.724Z,3.30
2018-09-30T00:17:43.880Z,3.87
2018-09-30T00:20:12.067Z,6.53
2018-09-30T00:22:40.236Z,3.47
2018-09-30T00:25:13.823Z,5.80
2018-09-30T00:27:42.004Z,4.87
2018-09-30T00:30:10.223Z,3.97
2018-09-30T00:32:39.263Z,3.30
2018-09-30T00:35:07.461Z,3.70
2018-09-30T00:37:35.640Z,6.40
2018-09-30T00:40:03.834Z,7.60
2018-09-30T00:42:32.008Z,4.63
2018-09-30T00:45:00.292Z,3.70
2018-09-30T00:47:28.603Z,5.23
2018-09-30T00:49:56.847Z,4.37
2018-09-30T00:52:25.003Z,5.07
2018-09-30T00:54:53.183Z,3.60
2018-09-30T00:57:21.447Z,5.77
2018-09-30T00:59:49.679Z,5.17
2018-09-30T01:02:17.919Z,6.63
2018-09-30T01:04:46.103Z,5.57
2018-09-30T01:07:14.308Z,5.20
2018-09-30T01:09:42.558Z,5.13
2018-09-30T01:12:10.743Z,5.63
2018-09-30T01:14:38.922Z,4.63
2018-09-30T01:17:07.083Z,3.97
2018-09-30T01:19:35.283Z,4.63
2018-09-30T01:22:03.514Z,5.27
2018-09-30T01:24:31.727Z,4.40
2018-09-30T01:26:59.939Z,5.27
2018-09-30T01:29:28.212Z,3.47
2018-09-30T01:31:56.363Z,5.43
2018-09-30T01:34:24.762Z,6.00
2018-09-30T01:36:52.951Z,3.90
2018-09-30T01:39:21.140Z,6.00
2018-09-30T01:41:49.318Z,4.30
2018-09-30T01:44:17.500Z,4.87
2018-09-30T01:46:45.706Z,5.87
2018-09-30T01:49:13.885Z,3.43
2018-09-30T01:51:42.104Z,3.83
2018-09-30T01:54:10.276Z,4.23
2018-09-30T01:56:38.540Z,5.97
2018-09-30T01:59:06.779Z,5.23
2018-09-30T02:01:34.976Z,8.73
2018-09-30T02:04:03.174Z,5.57
2018-09-30T02:06:31.383Z,4.70
2018-09-30T02:08:59.592Z,5.37
2018-09-30T02:11:27.828Z,4.73
2018-09-30T02:13:56.078Z,3.93
2018-09-30T02:16:24.651Z,4.10
2018-09-30T02:18:52.837Z,3.53
2018-09-30T02:21:20.999Z,6.03
2018-09-30T02:23:49.190Z,4.23
2018-09-30T02:26:17.359Z,3.97
2018-09-30T02:28:45.536Z,4.27
2018-09-30T02:31:13.882Z,4.77
2018-09-30T02:33:42.074Z,3.53
2018-09-30T02:36:10.278Z,3.03
2018-09-30T02:38:38.493Z,5.37
2018-09-30T02:41:06.687Z,3.23
2018-09-30T02:43:34.905Z,5.00
2018-09-30T02:46:03.110Z,4.60
2018-09-30T02:48:31.403Z,3.73
2018-09-30T02:50:59.868Z,3.27
2018-09-30T02:53:32.219Z,5.57
2018-09-30T02:56:00.379Z,4.33
2018-09-30T02:58:28.572Z,3.30
2018-09-30T03:00:56.758Z,3.50
2018-09-30T03:03:24.925Z,3.30
2018-09-30T03:05:53.087Z,4.33
2018-09-30T03:08:26.523Z,4.40
2018-09-30T03:10:54.751Z,2.90
2018-09-30T03:13:23.058Z,4.57
2018-09-30T03:15:51.247Z,4.43
2018-09-30T03:18:19.475Z,3.60
2018-09-30T03:20:47.651Z,5.73
2018-09-30T03:23:15.813Z,6.87
2018-09-30T03:25:43.978Z,6.47
2018-09-30T03:28:12.256Z,6.67
2018-09-30T03:30:40.459Z,9.53
2018-09-30T03:33:08.615Z,12.17
2018-09-30T03:35:36.775Z,6.50
2018-09-30T03:38:04.994Z,12.57
2018-09-30T03:40:33.202Z,8.57
2018-09-30T03:43:01.375Z,8.90
2018-09-30T03:45:29.566Z,8.43
2018-09-30T03:47:57.783Z,9.87
2018-09-30T03:50:25.940Z,11.47
2018-09-30T03:52:54.136Z,11.53
2018-09-30T03:55:22.334Z,12.27
2018-09-30T03:57:50.545Z,12.27
2018-09-30T04:00:19.168Z,11.90
2018-09-30T04:02:47.346Z,7.87
2018-09-30T04:05:15.603Z,10.17
2018-09-30T04:07:43.775Z,9.60
2018-09-30T04:10:12.046Z,6.87
2018-09-30T04:12:40.123Z,10.17
2018-09-30T04:15:08.363Z,8.47
2018-09-30T04:17:36.524Z,9.23
2018-09-30T04:20:04.723Z,7.93
2018-09-30T04:22:32.887Z,9.20
2018-09-30T04:25:01.067Z,8.97
2018-09-30T04:27:29.263Z,10.53
2018-09-30T04:29:57.452Z,8.67
2018-09-30T04:32:25.635Z,7.47
2018-09-30T04:34:53.806Z,7.67
2018-09-30T04:37:21.982Z,12.13
2018-09-30T04:39:50.217Z,9.77
2018-09-30T04:42:19.021Z,10.90
2018-09-30T04:44:47.299Z,12.47
2018-09-30T04:47:15.471Z,12.37
2018-09-30T04:49:43.665Z,13.57
2018-09-30T04:52:11.835Z,11.73
2018-09-30T04:54:40.647Z,9.50
2018-09-30T04:57:08.847Z,13.63
2018-09-30T04:59:37.051Z,11.17
2018-09-30T05:02:05.243Z,10.73
2018-09-30T05:04:34.032Z,11.03
2018-09-30T05:07:02.265Z,8.03
2018-09-30T05:09:30.519Z,7.63
2018-09-30T05:11:58.700Z,11.23
2018-09-30T05:14:26.846Z,13.90
2018-09-30T05:16:55.218Z,8.97
2018-09-30T05:19:23.410Z,10.53
2018-09-30T05:21:51.629Z,8.90
2018-09-30T05:24:19.782Z,8.87
2018-09-30T05:26:47.972Z,9.57
2018-09-30T05:29:16.130Z,5.77
2018-09-30T05:31:44.364Z,8.40
2018-09-30T05:34:12.604Z,9.20
2018-09-30T05:36:40.796Z,5.73
2018-09-30T05:39:10.018Z,4.97
2018-09-30T05:41:38.815Z,4.90
2018-09-30T05:44:07.674Z,6.67
2018-09-30T05:46:35.859Z,6.10
2018-09-30T05:49:04.200Z,5.10
2018-09-30T05:51:32.547Z,7.30
2018-09-30T05:54:00.715Z,9.80
2018-09-30T05:56:28.994Z,4.97
2018-09-30T05:58:57.189Z,5.00
2018-09-30T06:01:25.478Z,8.63
2018-09-30T06:03:53.862Z,9.07
2018-09-30T06:06:22.157Z,6.47
2018-09-30T06:08:50.382Z,4.70
2018-09-30T06:11:18.588Z,5.27
2018-09-30T06:13:47.161Z,4.00
2018-09-30T06:16:15.240Z,5.67
2018-09-30T06:18:43.438Z,4.83
2018-09-30T06:21:11.619Z,4.13
2018-09-30T06:23:39.836Z,5.77
2018-09-30T06:26:07.978Z,4.77
2018-09-30T06:28:36.208Z,3.20
2018-09-30T06:31:04.396Z,4.70
2018-09-30T06:33:33.443Z,7.80
2018-09-30T06:36:01.640Z,3.70
2018-09-30T06:38:29.839Z,5.30
2018-09-30T06:40:58.065Z,5.40
2018-09-30T06:43:26.308Z,7.60
2018-09-30T06:45:54.493Z,8.07
2018-09-30T06:48:22.779Z,5.50
2018-09-30T06:50:51.307Z,4.33
2018-09-30T06:53:19.505Z,6.87
2018-09-30T06:55:47.743Z,5.67
2018-09-30T06:58:15.962Z,3.17
2018-09-30T07:00:44.186Z,4.50
2018-09-30T07:03:13.102Z,5.90
2018-09-30T07:05:41.311Z,5.47
2018-09-30T07:08:09.506Z,5.60
2018-09-30T07:10:37.785Z,7.60
2018-09-30T07:13:06.170Z,7.87
2018-09-30T07:15:34.470Z,9.20
2018-09-30T07:18:02.656Z,8.37
2018-09-30T07:20:30.860Z,10.20
2018-09-30T07:22:59.043Z,5.00
2018-09-30T07:25:27.191Z,5.83
2018-09-30T07:27:55.399Z,6.20
2018-09-30T07:30:23.611Z,9.07
2018-09-30T07:32:51.820Z,5.23
2018-09-30T07:35:20.009Z,7.77
2018-09-30T07:37:48.636Z,7.23
2018-09-30T07:40:17.319Z,6.93
2018-09-30T07:42:45.502Z,5.90
2018-09-30T07:45:14.287Z,6.43
2018-09-30T07:47:43.159Z,5.67
2018-09-30T07:50:11.342Z,4.97
2018-09-30T07:52:39.586Z,5.30
2018-09-30T07:55:07.725Z,6.63
2018-09-30T07:57:35.895Z,4.60
2018-09-30T08:00:05.401Z,4.97
2018-09-30T08:02:33.576Z,4.80
2018-09-30T08:05:01.755Z,4.53
2018-09-30T08:07:30.627Z,5.83
2018-09-30T08:09:59.471Z,7.20
2018-09-30T08:12:28.317Z,4.83
2018-09-30T08:14:56.551Z,8.83
2018-09-30T08:17:24.759Z,6.73
2018-09-30T08:19:52.944Z,8.57
2018-09-30T08:22:21.130Z,12.80
2018-09-30T08:24:49.355Z,4.80
2018-09-30T08:27:17.549Z,4.37
2018-09-30T08:29:46.392Z,7.40
2018-09-30T08:32:14.586Z,6.67
2018-09-30T08:34:42.786Z,5.33
2018-09-30T08:37:11.091Z,7.07
2018-09-30T08:39:39.980Z,8.17
2018-09-30T08:42:08.111Z,9.73
2018-09-30T08:44:36.314Z,6.70
2018-09-30T08:47:04.743Z,10.07
2018-09-30T08:49:32.954Z,9.77
2018-09-30T08:52:01.545Z,4.97
2018-09-30T08:54:29.795Z,7.00
2018-09-30T08:56:58.009Z,5.73
2018-09-30T08:59:26.175Z,5.83
2018-09-30T09:01:54.337Z,6.40
2018-09-30T09:04:22.652Z,6.70
2018-09-30T09:06:51.205Z,6.57
2018-09-30T09:09:19.422Z,6.57
2018-09-30T09:11:47.610Z,3.87
2018-09-30T09:14:15.791Z,5.20
2018-09-30T09:16:44.548Z,4.47
2018-09-30T09:19:12.828Z,6.70
2018-09-30T09:21:41.511Z,7.47
2018-09-30T09:24:09.735Z,6.30
2018-09-30T09:26:37.920Z,5.17
2018-09-30T09:29:06.174Z,4.13
2018-09-30T09:31:34.420Z,8.00
2018-09-30T09:34:02.674Z,5.30
2018-09-30T09:36:33.806Z,5.70
2018-09-30T09:39:02.872Z,7.70
2018-09-30T09:41:31.476Z,5.67
2018-09-30T09:43:59.661Z,6.63
2018-09-30T09:46:27.919Z,5.10
2018-09-30T09:48:56.078Z,6.80
2018-09-30T09:51:24.354Z,5.50
2018-09-30T09:53:52.889Z,5.20
2018-09-30T09:56:21.353Z,7.60
2018-09-30T09:58:49.615Z,4.60
2018-09-30T10:01:17.804Z,8.67
2018-09-30T10:03:46.538Z,6.97
2018-09-30T10:06:14.795Z,6.93
2018-09-30T10:08:43.002Z,3.87
2018-09-30T10:11:11.216Z,6.63
2018-09-30T10:13:39.399Z,5.50
2018-09-30T10:16:07.636Z,7.80
2018-09-30T10:18:42.159Z,5.53
2018-09-30T10:21:10.357Z,6.60
2018-09-30T10:23:39.577Z,5.23
2018-09-30T10:26:07.747Z,6.67
2018-09-30T10:28:35.947Z,10.00
2018-09-30T10:31:04.911Z,5.50
2018-09-30T10:33:33.144Z,6.13
2018-09-30T10:36:01.338Z,4.60
2018-09-30T10:38:29.546Z,7.27
2018-09-30T10:40:57.717Z,7.87
2018-09-30T10:43:25.907Z,7.03
2018-09-30T10:45:54.105Z,5.27
2018-09-30T10:48:22.389Z,8.77
2018-09-30T10:50:50.549Z,6.87
2018-09-30T10:53:19.301Z,8.00
2018-09-30T10:55:47.465Z,6.37
2018-09-30T10:58:16.228Z,6.47
2018-09-30T11:00:44.494Z,6.93
2018-09-30T11:03:12.723Z,5.73
2018-09-30T11:05:40.932Z,8.50
2018-09-30T11:08:09.103Z,7.23
2018-09-30T11:10:37.309Z,8.13
2018-09-30T11:13:05.628Z,7.73
2018-09-30T11:15:33.834Z,6.60
2018-09-30T11:18:02.009Z,7.17
2018-09-30T11:20:30.242Z,7.57
2018-09-30T11:22:58.463Z,7.23
2018-09-30T11:25:26.745Z,5.73
2018-09-30T11:27:55.220Z,5.60
2018-09-30T11:30:30.151Z,4.67
2018-09-30T11:32:58.363Z,4.57
2018-09-30T11:35:26.600Z,4.10
2018-09-30T11:37:54.876Z,4.63
2018-09-30T11:40:23.111Z,9.43
2018-09-30T11:42:51.312Z,7.50
2018-09-30T11:45:19.499Z,6.23
2018-09-30T11:47:47.766Z,8.50
2018-09-30T11:50:16.093Z,6.37
2018-09-30T11:52:44.397Z,5.53
2018-09-30T11:55:12.611Z,5.53
2018-09-30T11:57:40.821Z,6.40
2018-09-30T12:00:09.147Z,6.30
2018-09-30T12:02:37.366Z,4.43
2018-09-30T12:05:05.646Z,4.30
2018-09-30T12:07:33.846Z,4.23
2018-09-30T12:10:02.305Z,6.33
2018-09-30T12:12:30.545Z,4.90
2018-09-30T12:14:59.475Z,4.20
2018-09-30T12:17:27.696Z,8.20
2018-09-30T12:19:55.929Z,5.97
2018-09-30T12:22:24.134Z,3.17
2018-09-30T12:24:52.367Z,5.27
2018-09-30T12:27:20.619Z,6.87
2018-09-30T12:29:48.836Z,7.40
2018-09-30T12:32:17.001Z,7.27
2018-09-30T12:34:45.355Z,7.57
2018-09-30T12:37:13.618Z,8.37
2018-09-30T12:39:41.841Z,5.73
2018-09-30T12:42:10.022Z,6.43
2018-09-30T12:44:38.219Z,5.60
2018-09-30T12:47:06.424Z,7.27
2018-09-30T12:49:34.802Z,5.93
2018-09-30T12:52:02.984Z,7.13
2018-09-30T12:54:31.219Z,5.80
2018-09-30T12:56:59.431Z,7.43
2018-09-30T12:59:27.635Z,6.47
2018-09-30T13:01:55.914Z,7.07
2018-09-30T13:04:24.163Z,6.47
2018-09-30T13:06:52.378Z,6.50
2018-09-30T13:09:20.588Z,8.00
2018-09-30T13:11:48.847Z,4.33
2018-09-30T13:14:17.100Z,7.20
2018-09-30T13:16:45.307Z,6.47
2018-09-30T13:19:13.498Z,6.20
2018-09-30T13:21:41.730Z,7.17
2018-09-30T13:24:09.997Z,5.70
2018-09-30T13:26:38.230Z,5.90
2018-09-30T13:29:06.562Z,5.87
2018-09-30T13:31:34.826Z,4.73
2018-09-30T13:34:03.031Z,7.17
2018-09-30T13:36:31.255Z,5.83
2018-09-30T13:38:59.455Z,7.03
2018-09-30T13:41:27.667Z,5.90
2018-09-30T13:43:55.859Z,4.40
2018-09-30T13:46:24.036Z,8.70
2018-09-30T13:48:52.288Z,8.03
2018-09-30T13:51:20.661Z,6.60
2018-09-30T13:53:48.808Z,4.13
2018-09-30T13:56:17.039Z,4.40
2018-09-30T13:58:45.227Z,6.60
2018-09-30T14:01:13.649Z,6.03
2018-09-30T14:03:41.876Z,6.80
2018-09-30T14:06:10.155Z,6.60
2018-09-30T14:08:38.338Z,6.47
2018-09-30T14:11:06.563Z,6.57
2018-09-30T14:13:34.785Z,3.73
2018-09-30T14:16:03.019Z,7.57
2018-09-30T14:18:31.215Z,5.57
2018-09-30T14:20:59.403Z,5.10
2018-09-30T14:23:27.570Z,8.20
2018-09-30T14:25:55.750Z,4.67
2018-09-30T14:28:24.016Z,3.77
2018-09-30T14:30:52.249Z,4.87
2018-09-30T14:33:20.423Z,6.20
2018-09-30T14:35:48.653Z,6.70
2018-09-30T14:38:16.887Z,5.50
2018-09-30T14:40:45.188Z,5.80
2018-09-30T14:43:16.365Z,6.80
2018-09-30T14:45:44.595Z,6.53
2018-09-30T14:48:12.885Z,5.50
2018-09-30T14:50:41.039Z,8.93
2018-09-30T14:53:09.241Z,8.50
2018-09-30T14:55:37.460Z,8.27
2018-09-30T14:58:05.701Z,5.13
2018-09-30T15:00:33.883Z,7.87
2018-09-30T15:03:02.142Z,5.70
2018-09-30T15:05:30.331Z,8.63
2018-09-30T15:07:58.559Z,9.33
2018-09-30T15:10:26.776Z,6.33
2018-09-30T15:12:55.037Z,7.83
2018-09-30T15:15:23.497Z,8.00
2018-09-30T15:17:51.715Z,7.13
2018-09-30T15:20:19.954Z,5.60
2018-09-30T15:22:48.239Z,13.23
2018-09-30T15:25:16.454Z,8.50
2018-09-30T15:27:44.715Z,5.07
2018-09-30T15:30:12.990Z,4.50
2018-09-30T15:32:41.380Z,4.60
2018-09-30T15:35:09.571Z,4.63
2018-09-30T15:37:37.758Z,4.13
2018-09-30T15:40:06.403Z,5.87
2018-09-30T15:42:34.584Z,7.40
2018-09-30T15:45:02.937Z,7.87
2018-09-30T15:47:31.210Z,17.00
2018-09-30T15:49:59.420Z,8.97
2018-09-30T15:52:27.703Z,5.33
2018-09-30T15:54:56.073Z,3.43
2018-09-30T15:57:24.428Z,4.17
2018-09-30T15:59:52.699Z,5.17
2018-09-30T16:02:21.298Z,4.10
2018-09-30T16:04:49.512Z,4.00
2018-09-30T16:07:17.676Z,3.73
2018-09-30T16:09:45.865Z,9.20
2018-09-30T16:12:14.035Z,5.90
2018-09-30T16:14:42.995Z,6.87
2018-09-30T16:17:11.196Z,4.10
2018-09-30T16:19:39.378Z,3.73
2018-09-30T16:22:07.584Z,5.67
2018-09-30T16:24:35.963Z,5.13
2018-09-30T16:27:04.135Z,5.03
2018-09-30T16:29:32.347Z,4.97
2018-09-30T16:32:00.591Z,5.70
2018-09-30T16:34:28.818Z,6.37
2018-09-30T16:36:57.020Z,6.67
2018-09-30T16:39:25.259Z,6.77
2018-09-30T16:41:53.455Z,3.90
2018-09-30T16:44:21.913Z,4.13
2018-09-30T16:46:50.217Z,5.10
2018-09-30T16:49:18.415Z,5.47
2018-09-30T16:51:46.635Z,3.57
2018-09-30T16:54:14.832Z,3.77
2018-09-30T16:56:43.032Z,4.87
2018-09-30T16:59:11.231Z,3.57
2018-09-30T17:01:39.429Z,5.33
2018-09-30T17:04:07.644Z,5.57
2018-09-30T17:06:35.913Z,4.63
2018-09-30T17:09:05.294Z,4.93
2018-09-30T17:11:33.485Z,4.20
2018-09-30T17:14:01.666Z,6.30
2018-09-30T17:16:29.934Z,4.50
2018-09-30T17:18:58.192Z,7.20
2018-09-30T17:21:26.403Z,5.77
2018-09-30T17:23:54.598Z,6.33
2018-09-30T17:26:22.838Z,8.30
2018-09-30T17:28:51.063Z,6.47
2018-09-30T17:31:19.369Z,7.57
2018-09-30T17:33:47.532Z,5.37
2018-09-30T17:36:15.731Z,5.53
2018-09-30T17:38:43.911Z,6.37
2018-09-30T17:41:12.116Z,6.73
2018-09-30T17:43:40.267Z,5.53
2018-09-30T17:46:08.923Z,5.40
2018-09-30T17:48:37.080Z,6.43
2018-09-30T17:51:05.287Z,3.07
2018-09-30T17:53:33.514Z,4.50
2018-09-30T17:56:01.889Z,5.97
2018-09-30T17:58:30.110Z,5.00
2018-09-30T18:00:58.295Z,7.17
2018-09-30T18:03:26.485Z,5.50
2018-09-30T18:05:54.742Z,5.70
2018-09-30T18:08:22.966Z,6.73
2018-09-30T18:10:51.219Z,6.60
2018-09-30T18:13:19.343Z,5.93
2018-09-30T18:15:47.543Z,7.20
2018-09-30T18:18:15.726Z,6.93
2018-09-30T18:20:43.969Z,6.57
2018-09-30T18:23:12.150Z,5.67
2018-09-30T18:25:40.343Z,9.93
2018-09-30T18:28:09.018Z,7.77
2018-09-30T18:30:37.298Z,7.27
2018-09-30T18:33:05.496Z,6.80
2018-09-30T18:35:33.655Z,7.50
2018-09-30T18:38:01.956Z,7.53
2018-09-30T18:40:42.079Z,7.37
2018-09-30T18:43:10.765Z,5.93
2018-09-30T18:45:38.970Z,6.00
2018-09-30T18:48:07.718Z,7.53
2018-09-30T18:50:36.011Z,5.17
2018-09-30T18:53:04.308Z,7.40
2018-09-30T18:55:32.519Z,12.37
2018-09-30T18:58:01.155Z,6.83
2018-09-30T19:00:29.523Z,5.53
2018-09-30T19:02:57.691Z,8.10
2018-09-30T19:05:25.881Z,5.33
2018-09-30T19:07:54.107Z,6.47
2018-09-30T19:10:22.361Z,8.03
2018-09-30T19:12:50.522Z,9.03
2018-09-30T19:15:18.759Z,6.77
2018-09-30T19:17:47.139Z,8.47
2018-09-30T19:20:15.393Z,9.17
2018-09-30T19:22:43.649Z,7.40
2018-09-30T19:25:11.987Z,6.57
2018-09-30T19:27:40.123Z,5.57
2018-09-30T19:30:08.395Z,6.60
2018-09-30T19:32:36.521Z,7.43
2018-09-30T19:35:04.731Z,6.60
2018-09-30T19:37:32.915Z,8.20
2018-09-30T19:40:01.096Z,11.13
2018-09-30T19:42:29.314Z,5.63
2018-09-30T19:44:57.531Z,8.87
2018-09-30T19:47:25.747Z,5.83
2018-09-30T19:49:53.925Z,8.83
2018-09-30T19:52:22.784Z,7.63
2018-09-30T19:54:50.960Z,9.17
2018-09-30T19:57:19.151Z,6.60
2018-09-30T19:59:47.420Z,6.60
2018-09-30T20:02:15.574Z,7.07
2018-09-30T20:04:43.755Z,9.13
2018-09-30T20:07:11.928Z,5.97
2018-09-30T20:09:40.265Z,8.17
2018-09-30T20:12:08.643Z,8.17
2018-09-30T20:14:36.835Z,5.70
2018-09-30T20:17:05.880Z,7.37
2018-09-30T20:19:34.376Z,8.40
2018-09-30T20:22:02.806Z,8.60
2018-09-30T20:24:31.214Z,14.13
2018-09-30T20:26:59.614Z,11.53
2018-09-30T20:29:27.990Z,11.77
2018-09-30T20:31:56.290Z,11.30
2018-09-30T20:34:24.572Z,9.87
2018-09-30T20:36:52.944Z,6.13
2018-09-30T20:39:21.225Z,8.87
2018-09-30T20:41:49.521Z,7.87
2018-09-30T20:44:17.767Z,9.43
2018-09-30T20:46:46.602Z,9.90
2018-09-30T20:49:14.834Z,10.90
2018-09-30T20:51:43.089Z,8.20
2018-09-30T20:54:11.986Z,11.63
2018-09-30T20:56:40.304Z,9.63
2018-09-30T20:59:08.562Z,8.50
2018-09-30T21:01:36.837Z,15.93
2018-09-30T21:04:05.141Z,9.53
2018-09-30T21:06:37.583Z,7.63
2018-09-30T21:09:09.138Z,7.80
2018-09-30T21:11:37.409Z,9.33
2018-09-30T21:14:05.858Z,10.43
2018-09-30T21:16:34.200Z,10.47
2018-09-30T21:19:02.559Z,8.60
2018-09-30T21:21:30.893Z,10.17
2018-09-30T21:23:59.215Z,9.67
2018-09-30T21:26:27.567Z,10.60
2018-09-30T21:28:55.836Z,9.20
2018-09-30T21:31:24.172Z,10.80
2018-09-30T21:33:52.517Z,9.17
2018-09-30T21:36:20.794Z,8.27
2018-09-30T21:38:49.074Z,10.00
2018-09-30T21:41:17.394Z,10.30
2018-09-30T21:43:45.642Z,6.63
2018-09-30T21:46:13.885Z,8.07
2018-09-30T21:48:42.217Z,8.70
2018-09-30T21:51:10.470Z,7.67
2018-09-30T21:53:38.832Z,13.57
2018-09-30T21:56:07.212Z,11.83
2018-09-30T21:58:35.474Z,9.10
2018-09-30T22:01:04.867Z,9.07
2018-09-30T22:03:33.152Z,11.70
2018-09-30T22:06:01.667Z,9.77
2018-09-30T22:08:29.958Z,10.80
2018-09-30T22:10:58.252Z,11.60
2018-09-30T22:13:26.558Z,10.27
2018-09-30T22:15:54.868Z,11.37
2018-09-30T22:18:23.157Z,8.53
2018-09-30T22:20:51.470Z,9.90
2018-09-30T22:23:19.773Z,9.90
2018-09-30T22:25:48.080Z,7.50
2018-09-30T22:28:16.370Z,7.97
2018-09-30T22:30:44.639Z,9.60
2018-09-30T22:33:12.925Z,7.63
2018-09-30T22:35:41.239Z,7.47
2018-09-30T22:38:09.590Z,8.00
2018-09-30T22:40:37.910Z,6.67
2018-09-30T22:43:06.256Z,8.80
2018-09-30T22:45:34.586Z,9.57
2018-09-30T22:48:02.885Z,6.07
2018-09-30T22:50:31.174Z,8.20
2018-09-30T22:52:59.525Z,7.87
2018-09-30T22:55:27.846Z,7.00
2018-09-30T22:57:56.160Z,8.67
2018-09-30T23:00:24.459Z,9.20
2018-09-30T23:02:52.733Z,7.87
2018-09-30T23:05:21.021Z,7.33
2018-09-30T23:07:49.309Z,8.40
2018-09-30T23:10:17.565Z,7.70
2018-09-30T23:12:45.854Z,8.80
2018-09-30T23:15:14.229Z,6.17
2018-09-30T23:17:42.519Z,5.00
2018-09-30T23:20:15.094Z,10.73
2018-09-30T23:22:43.444Z,7.23
2018-09-30T23:25:11.801Z,7.63
2018-09-30T23:27:40.166Z,8.17
2018-09-30T23:30:08.507Z,12.37
2018-09-30T23:32:37.076Z,18.87
2018-09-30T23:35:05.406Z,14.97
2018-09-30T23:37:33.763Z,22.23
2018-09-30T23:40:02.139Z,17.60
2018-09-30T23:42:30.481Z,21.13
2018-09-30T23:44:58.964Z,15.60
2018-09-30T23:47:27.337Z,17.40
2018-09-30T23:49:55.622Z,15.10
2018-09-30T23:52:23.897Z,14.87
2018-09-30T23:54:52.485Z,17.70
2018-09-30T23:57:20.825Z,13.53
2018-09-30T23:59:49.507Z,11.43
